createdAt,value
2023-03-26T00:00:31.066Z,95201.09
2023-03-26T00:01:36.658Z,95194.13
2023-03-26T00:02:39.833Z,95199.56
2023-03-26T00:03:45.111Z,95196.84
2023-03-26T00:04:47.235Z,95191.38
2023-03-26T00:05:50.640Z,95192.13
2023-03-26T00:06:52.515Z,95189.81
2023-03-26T00:07:55.288Z,95189.81
2023-03-26T00:08:58.230Z,95195.75
2023-03-26T00:10:01.142Z,95195.41
2023-03-26T00:11:04.122Z,95194.16
2023-03-26T00:12:08.394Z,95192.41
2023-03-26T00:13:10.619Z,95197.03
2023-03-26T00:14:17.451Z,95193.19
2023-03-26T00:15:19.277Z,95192.41
2023-03-26T00:16:22.149Z,95187.06
2023-03-26T00:17:24.183Z,95188.59
2023-03-26T00:18:30.696Z,95189.34
2023-03-26T00:19:33.933Z,95182.78
2023-03-26T00:20:38.329Z,95187.84
2023-03-26T00:21:41.442Z,95193.28
2023-03-26T00:22:45.487Z,95186.63
2023-03-26T00:23:49.132Z,95185.09
2023-03-26T00:24:52.025Z,95183.25
2023-03-26T00:25:56.161Z,95183.25
2023-03-26T00:26:59.748Z,95187.91
2023-03-26T00:28:03.818Z,95190.22
2023-03-26T00:29:08.247Z,95186.28
2023-03-26T00:30:10.547Z,95184.00
2023-03-26T00:31:15.509Z,95190.22
2023-03-26T00:32:17.555Z,95194.16
2023-03-26T00:33:20.449Z,95194.94
2023-03-26T00:34:23.053Z,95192.97
2023-03-26T00:35:26.166Z,95189.13
2023-03-26T00:36:28.025Z,95189.88
2023-03-26T00:37:33.816Z,95189.88
2023-03-26T00:38:39.105Z,95188.38
2023-03-26T00:39:42.746Z,95187.56
2023-03-26T00:40:47.916Z,95185.97
2023-03-26T00:41:54.414Z,95184.41
2023-03-26T00:42:56.628Z,95192.63
2023-03-26T00:44:01.166Z,95187.56
2023-03-26T00:45:03.246Z,95183.31
2023-03-26T00:46:06.789Z,95182.56
2023-03-26T00:47:09.633Z,95186.06
2023-03-26T00:48:12.843Z,95178.63
2023-03-26T00:49:15.704Z,95182.56
2023-03-26T00:50:17.715Z,95183.75
2023-03-26T00:51:22.337Z,95182.56
2023-03-26T00:52:24.716Z,95178.63
2023-03-26T00:53:27.564Z,95181.34
2023-03-26T00:54:29.513Z,95181.34
2023-03-26T00:55:32.525Z,95182.56
2023-03-26T00:56:35.032Z,95189.53
2023-03-26T00:57:38.006Z,95191.09
2023-03-26T00:58:42.124Z,95190.31
2023-03-26T00:59:46.262Z,95184.09
2023-03-26T01:00:51.970Z,95188.38
2023-03-26T01:01:55.270Z,95186.81
2023-03-26T01:02:58.747Z,95185.63
2023-03-26T01:04:28.402Z,95185.63
2023-03-26T01:05:48.865Z,95185.63
2023-03-26T01:06:50.934Z,95189.53
2023-03-26T01:07:54.026Z,95195.00
2023-03-26T01:09:00.413Z,95191.53
2023-03-26T01:10:03.838Z,95190.31
2023-03-26T01:11:13.936Z,95178.63
2023-03-26T01:12:19.679Z,95188.03
2023-03-26T01:13:24.057Z,95184.53
2023-03-26T01:14:29.025Z,95190.41
2023-03-26T01:15:32.797Z,95190.09
2023-03-26T01:16:39.128Z,95181.13
2023-03-26T01:17:43.135Z,95183.09
2023-03-26T01:18:45.998Z,95188.56
2023-03-26T01:19:54.382Z,95180.38
2023-03-26T01:21:05.086Z,95180.38
2023-03-26T01:22:11.082Z,95183.53
2023-03-26T01:23:20.074Z,95178.47
2023-03-26T01:24:24.226Z,95171.03
2023-03-26T01:25:32.585Z,95170.28
2023-03-26T01:27:13.876Z,95175.31
2023-03-26T01:28:17.699Z,95177.28
2023-03-26T01:29:25.830Z,95176.50
2023-03-26T01:30:37.112Z,95175.31
2023-03-26T01:31:46.340Z,95180.03
2023-03-26T01:33:02.293Z,95170.28
2023-03-26T01:34:14.074Z,95170.28
2023-03-26T01:35:36.252Z,95170.28
2023-03-26T01:36:45.060Z,95170.28
2023-03-26T01:37:58.857Z,95173.00
2023-03-26T01:39:09.734Z,95171.81
2023-03-26T01:40:23.474Z,95167.53
2023-03-26T01:41:32.342Z,95159.34
2023-03-26T01:42:41.003Z,95159.34
2023-03-26T01:43:47.996Z,95164.06
2023-03-26T01:44:56.388Z,95168.00
2023-03-26T01:46:01.852Z,95163.28
2023-03-26T01:47:06.250Z,95163.28
2023-03-26T01:48:09.439Z,95161.75
2023-03-26T01:49:13.384Z,95160.22
2023-03-26T01:50:16.688Z,95160.22
2023-03-26T01:51:27.675Z,95158.66
2023-03-26T01:52:31.628Z,95157.50
2023-03-26T01:53:37.559Z,95157.91
2023-03-26T01:54:41.306Z,95157.16
2023-03-26T01:55:56.238Z,95146.97
2023-03-26T01:57:10.639Z,95153.22
2023-03-26T01:58:21.278Z,95143.50
2023-03-26T01:59:40.668Z,95146.22
2023-03-26T02:00:51.607Z,95146.22
2023-03-26T02:02:01.313Z,95138.56
2023-03-26T02:03:19.109Z,95138.56
2023-03-26T02:04:26.404Z,95135.06
2023-03-26T02:05:35.154Z,95141.28
2023-03-26T02:06:43.412Z,95135.84
2023-03-26T02:07:52.481Z,95143.25
2023-03-26T02:08:59.077Z,95137.81
2023-03-26T02:10:07.792Z,95140.97
2023-03-26T02:11:14.303Z,95137.00
2023-03-26T02:12:18.403Z,95138.22
2023-03-26T02:13:20.370Z,95137.00
2023-03-26T02:14:23.201Z,95130.03
2023-03-26T02:15:25.549Z,95141.72
2023-03-26T02:16:28.426Z,95136.69
2023-03-26T02:17:32.514Z,95132.44
2023-03-26T02:18:38.998Z,95127.72
2023-03-26T02:19:42.753Z,95128.47
2023-03-26T02:20:45.074Z,95118.75
2023-03-26T02:21:51.235Z,95117.56
2023-03-26T02:22:53.978Z,95114.50
2023-03-26T02:24:03.053Z,95119.97
2023-03-26T02:25:08.797Z,95118.44
2023-03-26T02:26:14.934Z,95113.72
2023-03-26T02:27:31.806Z,95115.69
2023-03-26T02:28:35.601Z,95126.63
2023-03-26T02:29:38.148Z,95123.13
2023-03-26T02:30:43.326Z,95118.44
2023-03-26T02:31:46.422Z,95112.97
2023-03-26T02:32:52.344Z,95119.19
2023-03-26T02:33:56.651Z,95111.44
2023-03-26T02:35:01.401Z,95116.91
2023-03-26T02:36:04.615Z,95116.13
2023-03-26T02:37:08.359Z,95111.88
2023-03-26T02:38:14.310Z,95109.13
2023-03-26T02:39:17.477Z,95111.09
2023-03-26T02:40:27.357Z,95101.38
2023-03-26T02:41:31.724Z,95111.09
2023-03-26T02:42:40.426Z,95108.38
2023-03-26T02:43:43.609Z,95106.81
2023-03-26T02:44:49.318Z,95096.69
2023-03-26T02:45:55.539Z,95103.69
2023-03-26T02:47:16.279Z,95100.19
2023-03-26T02:48:28.036Z,95094.72
2023-03-26T02:49:50.514Z,95102.91
2023-03-26T02:51:18.200Z,95100.94
2023-03-26T02:52:40.755Z,95096.25
2023-03-26T02:53:43.640Z,95096.69
2023-03-26T02:55:06.384Z,95097.44
2023-03-26T02:56:11.099Z,95095.16
2023-03-26T02:57:23.145Z,95094.38
2023-03-26T02:58:46.893Z,95092.06
2023-03-26T02:59:50.410Z,95088.16
2023-03-26T03:01:11.624Z,95079.63
2023-03-26T03:02:24.296Z,95076.91
2023-03-26T03:03:29.917Z,95072.19
2023-03-26T03:04:51.995Z,95069.47
2023-03-26T03:05:56.127Z,95068.72
2023-03-26T03:07:06.031Z,95058.53
2023-03-26T03:08:09.312Z,95067.94
2023-03-26T03:09:16.314Z,95058.97
2023-03-26T03:10:41.160Z,95065.22
2023-03-26T03:11:57.508Z,95057.44
2023-03-26T03:13:01.154Z,95054.72
2023-03-26T03:14:05.267Z,95058.22
2023-03-26T03:15:09.701Z,95058.97
2023-03-26T03:16:12.788Z,95055.47
2023-03-26T03:17:14.784Z,95054.72
2023-03-26T03:18:17.899Z,95052.41
2023-03-26T03:19:20.956Z,95053.16
2023-03-26T03:20:22.960Z,95048.16
2023-03-26T03:21:28.138Z,95049.34
2023-03-26T03:22:30.001Z,95047.81
2023-03-26T03:23:33.272Z,95036.91
2023-03-26T03:24:45.917Z,95034.16
2023-03-26T03:25:49.075Z,95035.34
2023-03-26T03:26:54.969Z,95036.91
2023-03-26T03:28:15.314Z,95033.84
2023-03-26T03:29:17.400Z,95036.56
2023-03-26T03:30:20.565Z,95038.09
2023-03-26T03:31:47.737Z,95031.09
2023-03-26T03:33:13.058Z,95026.84
2023-03-26T03:34:16.041Z,95031.53
2023-03-26T03:35:23.289Z,95033.16
2023-03-26T03:36:33.098Z,95027.69
2023-03-26T03:37:44.649Z,95035.88
2023-03-26T03:38:46.505Z,95024.97
2023-03-26T03:39:54.013Z,95028.91
2023-03-26T03:40:57.841Z,95028.16
2023-03-26T03:42:04.271Z,95022.34
2023-03-26T03:43:06.560Z,95025.09
2023-03-26T03:44:19.439Z,95024.28
2023-03-26T03:45:22.069Z,95027.03
2023-03-26T03:46:44.295Z,95019.63
2023-03-26T03:47:46.492Z,95020.03
2023-03-26T03:48:51.745Z,95019.28
2023-03-26T03:50:01.737Z,95023.53
2023-03-26T03:51:07.041Z,95029.75
2023-03-26T03:52:35.924Z,95029.75
2023-03-26T03:53:40.664Z,95027.03
2023-03-26T03:54:44.939Z,95027.03
2023-03-26T03:55:55.931Z,95015.34
2023-03-26T03:57:03.482Z,95022.78
2023-03-26T03:58:14.752Z,95020.03
2023-03-26T03:59:19.379Z,95013.06
2023-03-26T04:00:22.665Z,95010.34
2023-03-26T04:01:43.182Z,95006.81
2023-03-26T04:02:54.376Z,95002.16
2023-03-26T04:03:58.005Z,95008.78
2023-03-26T04:05:12.872Z,94999.41
2023-03-26T04:06:21.249Z,94992.81
2023-03-26T04:07:28.542Z,94993.63
2023-03-26T04:08:51.821Z,94990.88
2023-03-26T04:09:54.232Z,94992.06
2023-03-26T04:10:59.544Z,94994.03
2023-03-26T04:12:28.127Z,94990.56
2023-03-26T04:13:37.151Z,94990.97
2023-03-26T04:14:56.352Z,94987.47
2023-03-26T04:15:59.396Z,94992.19
2023-03-26T04:17:02.283Z,94985.50
2023-03-26T04:18:10.499Z,94988.66
2023-03-26T04:19:14.381Z,94989.88
2023-03-26T04:20:17.879Z,94991.84
2023-03-26T04:21:21.857Z,94989.88
2023-03-26T04:22:34.337Z,94999.28
2023-03-26T04:23:39.066Z,94986.81
2023-03-26T04:24:54.410Z,94989.53
2023-03-26T04:26:19.700Z,94987.56
2023-03-26T04:27:42.668Z,94983.31
2023-03-26T04:28:55.442Z,94986.81
2023-03-26T04:30:05.470Z,94986.47
2023-03-26T04:31:13.777Z,94982.56
2023-03-26T04:32:22.329Z,94993.47
2023-03-26T04:33:25.327Z,94980.25
2023-03-26T04:34:29.927Z,94980.59
2023-03-26T04:35:48.337Z,94985.28
2023-03-26T04:36:54.371Z,94977.53
2023-03-26T04:37:59.985Z,94977.53
2023-03-26T04:39:08.376Z,94964.63
2023-03-26T04:40:49.393Z,94965.41
2023-03-26T04:42:19.934Z,94963.13
2023-03-26T04:43:42.322Z,94956.91
2023-03-26T04:45:11.355Z,94958.84
2023-03-26T04:46:18.482Z,94968.59
2023-03-26T04:47:27.198Z,94961.25
2023-03-26T04:48:30.327Z,94962.78
2023-03-26T04:49:33.952Z,94965.84
2023-03-26T04:50:36.383Z,94961.38
2023-03-26T04:51:41.817Z,94963.47
2023-03-26T04:53:04.727Z,94967.38
2023-03-26T04:54:25.293Z,94951.75
2023-03-26T04:55:43.176Z,94958.63
2023-03-26T04:56:56.686Z,94954.06
2023-03-26T04:58:22.541Z,94950.91
2023-03-26T04:59:35.290Z,94952.66
2023-03-26T05:00:43.224Z,94949.94
2023-03-26T05:01:45.852Z,94951.44
2023-03-26T05:02:54.177Z,94945.25
2023-03-26T05:03:58.500Z,94946.00
2023-03-26T05:05:03.327Z,94946.19
2023-03-26T05:06:07.664Z,94947.72
2023-03-26T05:07:12.584Z,94941.50
2023-03-26T05:08:19.774Z,94943.13
2023-03-26T05:09:23.432Z,94935.50
2023-03-26T05:10:44.027Z,94937.88
2023-03-26T05:11:52.123Z,94932.44
2023-03-26T05:12:54.063Z,94932.44
2023-03-26T05:14:01.257Z,94930.91
2023-03-26T05:15:03.682Z,94927.72
2023-03-26T05:16:31.760Z,94932.44
2023-03-26T05:17:42.643Z,94929.69
2023-03-26T05:18:54.061Z,94929.69
2023-03-26T05:19:57.321Z,94929.69
2023-03-26T05:21:01.200Z,94929.69
2023-03-26T05:22:04.052Z,94932.44
2023-03-26T05:23:09.577Z,94928.47
2023-03-26T05:24:14.204Z,94923.81
2023-03-26T05:25:18.442Z,94934.72
2023-03-26T05:26:20.746Z,94924.56
2023-03-26T05:27:24.020Z,94928.06
2023-03-26T05:28:26.981Z,94924.16
2023-03-26T05:29:34.608Z,94928.06
2023-03-26T05:30:36.857Z,94925.34
2023-03-26T05:31:41.729Z,94931.56
2023-03-26T05:32:43.731Z,94919.13
2023-03-26T05:33:48.553Z,94921.84
2023-03-26T05:34:51.018Z,94919.13
2023-03-26T05:36:01.078Z,94919.13
2023-03-26T05:37:04.219Z,94913.66
2023-03-26T05:38:23.955Z,94921.84
2023-03-26T05:39:26.862Z,94903.50
2023-03-26T05:40:29.869Z,94913.66
2023-03-26T05:41:34.995Z,94912.44
2023-03-26T05:42:38.150Z,94901.53
2023-03-26T05:44:01.257Z,94901.09
2023-03-26T05:45:06.407Z,94900.34
2023-03-26T05:46:10.289Z,94898.78
2023-03-26T05:47:14.206Z,94892.56
2023-03-26T05:48:17.152Z,94894.88
2023-03-26T05:49:19.070Z,94882.41
2023-03-26T05:50:21.922Z,94889.44
2023-03-26T05:51:24.508Z,94883.97
2023-03-26T05:52:37.652Z,94880.47
2023-03-26T05:54:03.118Z,94879.69
2023-03-26T05:55:45.803Z,94873.91
2023-03-26T05:56:47.837Z,94873.91
2023-03-26T05:58:09.269Z,94873.91
2023-03-26T05:59:32.196Z,94867.69
2023-03-26T06:00:58.406Z,94864.19
2023-03-26T06:02:08.171Z,94866.91
2023-03-26T06:03:43.033Z,94866.91
2023-03-26T06:04:51.428Z,94867.69
2023-03-26T06:06:15.652Z,94867.25
2023-03-26T06:07:24.012Z,94863.31
2023-03-26T06:08:39.611Z,94858.31
2023-03-26T06:09:42.596Z,94854.38
2023-03-26T06:10:44.890Z,94860.59
2023-03-26T06:11:47.722Z,94861.78
2023-03-26T06:12:49.719Z,94862.13
2023-03-26T06:13:52.980Z,94862.13
2023-03-26T06:14:54.835Z,94862.88
2023-03-26T06:16:26.149Z,94864.84
2023-03-26T06:17:35.926Z,94864.41
2023-03-26T06:18:47.460Z,94860.91
2023-03-26T06:20:18.266Z,94862.47
2023-03-26T06:21:22.817Z,94863.22
2023-03-26T06:22:45.992Z,94848.81
2023-03-26T06:24:09.181Z,94848.81
2023-03-26T06:25:30.876Z,94853.81
2023-03-26T06:26:54.158Z,94853.06
2023-03-26T06:28:07.834Z,94853.06
2023-03-26T06:29:42.902Z,94863.56
2023-03-26T06:31:08.650Z,94875.22
2023-03-26T06:32:20.109Z,94862.78
2023-03-26T06:33:43.644Z,94865.06
2023-03-26T06:34:48.849Z,94853.41
2023-03-26T06:35:51.707Z,94849.44
2023-03-26T06:36:54.004Z,94854.91
2023-03-26T06:37:58.270Z,94854.91
2023-03-26T06:39:00.197Z,94856.47
2023-03-26T06:40:13.066Z,94862.66
2023-03-26T06:41:37.076Z,94859.50
2023-03-26T06:43:07.433Z,94850.56
2023-03-26T06:44:26.024Z,94853.16
2023-03-26T06:45:51.081Z,94848.47
2023-03-26T06:47:12.287Z,94855.47
2023-03-26T06:48:53.449Z,94849.25
2023-03-26T06:50:16.417Z,94849.25
2023-03-26T06:51:41.851Z,94849.25
2023-03-26T06:53:11.321Z,94852.00
2023-03-26T06:54:27.586Z,94857.00
2023-03-26T06:55:38.957Z,94853.50
2023-03-26T06:57:00.966Z,94840.63
2023-03-26T06:58:18.806Z,94842.16
2023-03-26T06:59:41.889Z,94837.47
2023-03-26T07:01:03.725Z,94839.84
2023-03-26T07:02:38.895Z,94837.47
2023-03-26T07:04:00.588Z,94832.00
2023-03-26T07:05:23.577Z,94825.00
2023-03-26T07:06:55.925Z,94818.78
2023-03-26T07:08:17.675Z,94829.69
2023-03-26T07:09:39.192Z,94830.91
2023-03-26T07:11:00.713Z,94825.88
2023-03-26T07:12:23.846Z,94830.91
2023-03-26T07:13:49.575Z,94832.88
2023-03-26T07:15:11.720Z,94830.91
2023-03-26T07:16:32.171Z,94825.88
2023-03-26T07:17:34.075Z,94820.41
2023-03-26T07:18:41.592Z,94811.91
2023-03-26T07:19:46.014Z,94814.97
2023-03-26T07:20:50.883Z,94814.19
2023-03-26T07:21:55.566Z,94806.44
2023-03-26T07:23:20.486Z,94807.19
2023-03-26T07:24:34.198Z,94799.00
2023-03-26T07:25:44.973Z,94794.00
2023-03-26T07:27:07.732Z,94789.72
2023-03-26T07:28:24.345Z,94791.28
2023-03-26T07:29:49.985Z,94783.50
2023-03-26T07:31:34.661Z,94790.19
2023-03-26T07:33:04.982Z,94774.56
2023-03-26T07:34:40.626Z,94775.75
2023-03-26T07:36:02.419Z,94766.38
2023-03-26T07:37:36.849Z,94760.91
2023-03-26T07:39:16.001Z,94766.38
2023-03-26T07:40:46.243Z,94759.38
2023-03-26T07:42:19.153Z,94751.19
2023-03-26T07:44:05.483Z,94749.34
2023-03-26T07:45:19.666Z,94741.91
2023-03-26T07:46:41.608Z,94743.44
2023-03-26T07:48:04.502Z,94731.78
2023-03-26T07:49:37.615Z,94724.78
2023-03-26T07:51:03.414Z,94727.50
2023-03-26T07:52:25.945Z,94723.25
2023-03-26T07:53:42.005Z,94717.81
2023-03-26T07:55:03.455Z,94708.06
2023-03-26T07:56:34.585Z,94701.09
2023-03-26T07:58:27.761Z,94695.31
2023-03-26T08:00:11.660Z,94700.78
2023-03-26T08:01:34.473Z,94703.06
2023-03-26T08:03:01.278Z,94690.94
2023-03-26T08:04:35.916Z,94686.56
2023-03-26T08:06:09.086Z,94678.81
2023-03-26T08:07:41.393Z,94679.59
2023-03-26T08:09:15.926Z,94679.59
2023-03-26T08:10:44.825Z,94683.84
2023-03-26T08:11:57.983Z,94686.56
2023-03-26T08:13:11.062Z,94678.38
2023-03-26T08:14:27.718Z,94681.53
2023-03-26T08:15:34.961Z,94678.03
2023-03-26T08:16:42.233Z,94678.03
2023-03-26T08:17:52.102Z,94686.22
2023-03-26T08:19:01.609Z,94680.78
2023-03-26T08:20:16.956Z,94674.13
2023-03-26T08:21:25.553Z,94685.81
2023-03-26T08:22:31.291Z,94674.88
2023-03-26T08:23:50.279Z,94669.44
2023-03-26T08:25:06.697Z,94672.91
2023-03-26T08:26:14.665Z,94674.13
2023-03-26T08:27:22.801Z,94671.41
2023-03-26T08:28:38.076Z,94668.66
2023-03-26T08:29:49.977Z,94656.97
2023-03-26T08:30:57.730Z,94673.34
2023-03-26T08:32:01.669Z,94668.66
2023-03-26T08:33:13.628Z,94675.66
2023-03-26T08:34:15.749Z,94667.47
2023-03-26T08:35:19.703Z,94670.19
2023-03-26T08:36:22.885Z,94670.19
2023-03-26T08:37:27.338Z,94666.25
2023-03-26T08:38:29.270Z,94662.31
2023-03-26T08:39:32.120Z,94666.56
2023-03-26T08:41:08.330Z,94659.91
2023-03-26T08:42:47.050Z,94660.69
2023-03-26T08:44:15.473Z,94666.88
2023-03-26T08:45:43.628Z,94676.28
2023-03-26T08:47:08.584Z,94675.09
2023-03-26T08:49:02.010Z,94672.34
2023-03-26T08:50:27.950Z,94669.63
2023-03-26T08:52:08.877Z,94679.34
2023-03-26T08:53:42.779Z,94673.88
2023-03-26T08:55:04.375Z,94668.44
2023-03-26T08:56:13.083Z,94660.25
2023-03-26T08:57:49.931Z,94656.75
2023-03-26T08:59:20.389Z,94655.22
2023-03-26T09:00:50.072Z,94649.75
2023-03-26T09:02:34.478Z,94651.28
2023-03-26T09:04:01.298Z,94654.03
2023-03-26T09:05:36.798Z,94651.72
2023-03-26T09:07:01.958Z,94650.50
2023-03-26T09:08:30.111Z,94649.00
2023-03-26T09:09:56.200Z,94654.47
2023-03-26T09:11:36.709Z,94643.53
2023-03-26T09:13:12.517Z,94649.00
2023-03-26T09:14:51.620Z,94636.09
2023-03-26T09:16:25.371Z,94641.56
2023-03-26T09:18:02.261Z,94633.38
2023-03-26T09:19:32.184Z,94635.69
2023-03-26T09:20:54.683Z,94636.53
2023-03-26T09:22:25.378Z,94631.09
2023-03-26T09:23:58.396Z,94626.84
2023-03-26T09:25:31.124Z,94624.09
2023-03-26T09:26:48.225Z,94624.09
2023-03-26T09:28:22.175Z,94619.41
2023-03-26T09:30:10.510Z,94627.28
2023-03-26T09:31:36.088Z,94645.19
2023-03-26T09:33:09.848Z,94638.97
2023-03-26T09:34:32.211Z,94644.44
2023-03-26T09:35:53.160Z,94643.22
2023-03-26T09:37:08.646Z,94645.94
2023-03-26T09:38:21.792Z,94644.19
2023-03-26T09:39:37.733Z,94645.19
2023-03-26T09:40:52.951Z,94643.97
2023-03-26T09:42:09.207Z,94638.50
2023-03-26T09:43:40.181Z,94632.28
2023-03-26T09:45:03.810Z,94626.41
2023-03-26T09:46:22.646Z,94620.16
2023-03-26T09:47:38.149Z,94616.25
2023-03-26T09:48:54.242Z,94613.69
2023-03-26T09:50:12.776Z,94612.50
2023-03-26T09:51:35.800Z,94601.91
2023-03-26T09:53:02.527Z,94606.59
2023-03-26T09:55:03.716Z,94597.31
2023-03-26T09:56:17.403Z,94594.59
2023-03-26T09:57:37.046Z,94606.28
2023-03-26T09:59:06.207Z,94604.31
2023-03-26T10:00:28.449Z,94594.16
2023-03-26T10:01:37.710Z,94586.28
2023-03-26T10:03:04.819Z,94571.09
2023-03-26T10:04:38.021Z,94588.69
2023-03-26T10:05:52.282Z,94574.63
2023-03-26T10:07:05.781Z,94587.19
2023-03-26T10:08:30.868Z,94587.94
2023-03-26T10:09:48.384Z,94569.91
2023-03-26T10:10:56.545Z,94571.44
2023-03-26T10:12:12.001Z,94580.06
2023-03-26T10:13:26.752Z,94593.25
2023-03-26T10:14:40.546Z,94590.09
2023-03-26T10:16:01.331Z,94581.59
2023-03-26T10:17:15.445Z,94589.34
2023-03-26T10:18:30.268Z,94601.78
2023-03-26T10:19:46.545Z,94596.63
2023-03-26T10:20:57.586Z,94580.25
2023-03-26T10:22:12.555Z,94585.41
2023-03-26T10:23:31.549Z,94589.19
2023-03-26T10:24:49.467Z,94587.25
2023-03-26T10:26:06.065Z,94595.44
2023-03-26T10:27:29.290Z,94589.19
2023-03-26T10:28:46.241Z,94589.19
2023-03-26T10:30:35.083Z,94581.78
2023-03-26T10:31:42.961Z,94593.91
2023-03-26T10:32:58.921Z,94607.13
2023-03-26T10:34:09.581Z,94609.41
2023-03-26T10:35:48.250Z,94594.66
2023-03-26T10:36:59.570Z,94591.50
2023-03-26T10:38:14.699Z,94606.38
2023-03-26T10:39:45.842Z,94635.19
2023-03-26T10:41:05.959Z,94640.66
2023-03-26T10:42:23.101Z,94636.41
2023-03-26T10:43:49.757Z,94628.97
2023-03-26T10:45:32.983Z,94600.59
2023-03-26T10:46:47.242Z,94604.06
2023-03-26T10:48:19.416Z,94615.75
2023-03-26T10:49:42.097Z,94595.88
2023-03-26T10:51:03.196Z,94598.19
2023-03-26T10:52:09.120Z,94601.34
2023-03-26T10:53:22.880Z,94588.44
2023-03-26T10:54:41.215Z,94583.00
2023-03-26T10:55:47.012Z,94573.59
2023-03-26T10:56:52.604Z,94568.59
2023-03-26T10:57:59.958Z,94569.34
2023-03-26T10:59:08.148Z,94565.09
2023-03-26T11:00:24.716Z,94569.00
2023-03-26T11:01:36.772Z,94562.69
2023-03-26T11:02:42.641Z,94555.69
2023-03-26T11:03:51.843Z,94552.97
2023-03-26T11:05:03.012Z,94552.97
2023-03-26T11:06:17.192Z,94550.22
2023-03-26T11:07:26.248Z,94555.69
2023-03-26T11:08:36.256Z,94559.50
2023-03-26T11:09:46.307Z,94554.78
2023-03-26T11:10:56.282Z,94551.63
2023-03-26T11:12:26.199Z,94548.47
2023-03-26T11:13:43.312Z,94555.75
2023-03-26T11:14:54.666Z,94556.06
2023-03-26T11:16:02.456Z,94556.06
2023-03-26T11:17:40.072Z,94545.16
2023-03-26T11:18:47.108Z,94566.09
2023-03-26T11:19:55.068Z,94574.28
2023-03-26T11:21:19.898Z,94561.84
2023-03-26T11:22:35.587Z,94558.38
2023-03-26T11:23:42.182Z,94558.81
2023-03-26T11:25:03.304Z,94562.75
2023-03-26T11:26:13.641Z,94565.47
2023-03-26T11:27:31.568Z,94547.56
2023-03-26T11:29:04.739Z,94563.63
2023-03-26T11:30:34.568Z,94564.09
2023-03-26T11:31:48.823Z,94576.94
2023-03-26T11:32:55.597Z,94566.16
2023-03-26T11:34:05.619Z,94552.97
2023-03-26T11:35:16.269Z,94545.66
2023-03-26T11:36:24.613Z,94548.06
2023-03-26T11:37:33.555Z,94545.03
2023-03-26T11:38:41.850Z,94547.56
2023-03-26T11:39:51.222Z,94556.06
2023-03-26T11:40:56.118Z,94560.75
2023-03-26T11:42:22.723Z,94558.91
2023-03-26T11:43:30.000Z,94552.56
2023-03-26T11:44:38.709Z,94554.09
2023-03-26T11:45:44.783Z,94543.94
2023-03-26T11:46:50.100Z,94547.00
2023-03-26T11:47:57.077Z,94546.53
2023-03-26T11:48:59.998Z,94556.25
2023-03-26T11:50:05.457Z,94552.31
2023-03-26T11:51:10.324Z,94545.34
2023-03-26T11:52:15.880Z,94547.31
2023-03-26T11:53:21.303Z,94546.53
2023-03-26T11:54:23.147Z,94545.47
2023-03-26T11:55:27.647Z,94536.50
2023-03-26T11:56:33.936Z,94520.13
2023-03-26T11:57:43.104Z,94513.47
2023-03-26T11:58:52.967Z,94514.69
2023-03-26T11:59:59.393Z,94523.19
2023-03-26T12:01:05.680Z,94524.69
2023-03-26T12:02:29.184Z,94530.78
2023-03-26T12:03:31.905Z,94532.19
2023-03-26T12:04:36.824Z,94539.94
2023-03-26T12:05:48.996Z,94546.03
2023-03-26T12:06:56.537Z,94545.16
2023-03-26T12:08:00.843Z,94531.06
2023-03-26T12:09:02.937Z,94525.59
2023-03-26T12:10:21.534Z,94530.16
2023-03-26T12:11:28.195Z,94533.97
2023-03-26T12:12:33.413Z,94523.34
2023-03-26T12:13:41.757Z,94520.63
2023-03-26T12:14:45.032Z,94519.13
2023-03-26T12:15:47.155Z,94510.34
2023-03-26T12:17:05.726Z,94515.03
2023-03-26T12:18:24.209Z,94510.34
2023-03-26T12:19:28.977Z,94511.84
2023-03-26T12:20:34.737Z,94510.34
2023-03-26T12:21:46.856Z,94504.88
2023-03-26T12:22:49.131Z,94507.94
2023-03-26T12:23:57.155Z,94503.22
2023-03-26T12:25:14.221Z,94514.91
2023-03-26T12:26:20.686Z,94517.94
2023-03-26T12:27:28.292Z,94514.91
2023-03-26T12:28:33.168Z,94510.97
2023-03-26T12:29:37.437Z,94516.72
2023-03-26T12:30:41.182Z,94511.25
2023-03-26T12:31:52.207Z,94500.03
2023-03-26T12:32:57.965Z,94505.50
2023-03-26T12:34:14.485Z,94509.44
2023-03-26T12:35:18.896Z,94505.19
2023-03-26T12:36:26.347Z,94504.72
2023-03-26T12:37:38.561Z,94496.53
2023-03-26T12:38:42.423Z,94500.03
2023-03-26T12:40:10.740Z,94502.78
2023-03-26T12:41:08.779Z,94510.19
2023-03-26T12:44:45.047Z,94514.91
2023-03-26T12:44:54.550Z,94524.31
2023-03-26T12:45:24.634Z,94520.78
2023-03-26T12:47:59.420Z,94519.72
2023-03-26T12:48:00.343Z,94517.31
2023-03-26T12:49:06.851Z,94520.78
2023-03-26T12:50:14.981Z,94516.13
2023-03-26T12:51:31.174Z,94514.13
2023-03-26T12:52:57.522Z,94518.84
2023-03-26T12:54:16.567Z,94510.19
2023-03-26T12:55:36.693Z,94502.47
2023-03-26T12:56:49.836Z,94499.72
2023-03-26T12:58:28.425Z,94505.94
2023-03-26T12:59:45.106Z,94510.19
2023-03-26T13:01:02.535Z,94511.25
2023-03-26T13:02:23.725Z,94499.91
2023-03-26T13:03:45.030Z,94500.66
2023-03-26T13:05:19.487Z,94500.66
2023-03-26T13:06:59.155Z,94505.78
2023-03-26T13:08:20.988Z,94504.59
2023-03-26T13:10:03.140Z,94503.06
2023-03-26T13:11:18.229Z,94497.91
2023-03-26T13:12:30.399Z,94487.00
2023-03-26T13:13:56.410Z,94484.25
2023-03-26T13:15:16.642Z,94492.03
2023-03-26T13:16:30.998Z,94496.56
2023-03-26T13:17:39.492Z,94491.06
2023-03-26T13:18:50.780Z,94494.63
2023-03-26T13:20:06.535Z,94491.44
2023-03-26T13:21:12.556Z,94490.22
2023-03-26T13:22:27.077Z,94486.84
2023-03-26T13:23:41.833Z,94482.38
2023-03-26T13:24:54.754Z,94492.75
2023-03-26T13:26:09.791Z,94480.00
2023-03-26T13:27:22.610Z,94488.09
2023-03-26T13:28:38.301Z,94485.16
2023-03-26T13:29:56.592Z,94479.81
2023-03-26T13:31:07.014Z,94481.69
2023-03-26T13:32:17.429Z,94481.66
2023-03-26T13:33:47.625Z,94483.16
2023-03-26T13:35:07.357Z,94484.78
2023-03-26T13:36:23.733Z,94483.38
2023-03-26T13:37:32.994Z,94487.00
2023-03-26T13:38:58.792Z,94483.91
2023-03-26T13:40:13.692Z,94473.75
2023-03-26T13:41:25.636Z,94470.25
2023-03-26T13:42:40.641Z,94473.28
2023-03-26T13:43:56.204Z,94474.50
2023-03-26T13:45:07.048Z,94479.97
2023-03-26T13:46:19.877Z,94472.22
2023-03-26T13:47:27.010Z,94473.25
2023-03-26T13:48:35.626Z,94466.91
2023-03-26T13:49:41.038Z,94464.63
2023-03-26T13:50:51.913Z,94457.75
2023-03-26T13:52:01.432Z,94458.53
2023-03-26T13:53:08.301Z,94465.19
2023-03-26T13:54:19.124Z,94459.28
2023-03-26T13:55:28.268Z,94483.03
2023-03-26T13:56:37.524Z,94496.16
2023-03-26T13:57:44.527Z,94492.19
2023-03-26T13:58:51.383Z,94486.78
2023-03-26T13:59:58.470Z,94493.84
2023-03-26T14:01:07.281Z,94481.66
2023-03-26T14:02:15.016Z,94468.69
2023-03-26T14:03:26.666Z,94464.13
2023-03-26T14:04:34.358Z,94460.28
2023-03-26T14:05:42.664Z,94456.38
2023-03-26T14:06:54.056Z,94450.13
2023-03-26T14:08:04.110Z,94434.16
2023-03-26T14:09:11.767Z,94428.16
2023-03-26T14:10:20.678Z,94432.94
2023-03-26T14:11:33.269Z,94427.63
2023-03-26T14:12:51.351Z,94423.94
2023-03-26T14:13:58.557Z,94417.59
2023-03-26T14:15:05.003Z,94418.44
2023-03-26T14:16:15.081Z,94422.56
2023-03-26T14:17:23.536Z,94419.81
2023-03-26T14:18:35.674Z,94415.09
2023-03-26T14:20:10.375Z,94422.13